Time;durP1;ratioP1;P1;durP2;ratioP2;P2;SDS_P1;SDS_P2;PMS_P1;PMS_P2;Temp;Humidity;BMP_temperature;BMP_pressure;BME280_temperature;BME280_humidity;BME280_pressure;Samples;Min_cycle;Max_cycle;Signal;HPM_P1;HPM_P2
2023/04/29 00:00:35;;;;;;;2.88;2.00;;;;;;;;;;5056284;28;20028;-74
2023/04/29 00:03:20;;;;;;;5.90;2.47;;;;;;;;;;5056560;28;20064;-73
2023/04/29 00:06:05;;;;;;;2.47;1.88;;;;;;;;;;5040150;28;20518;-70
2023/04/29 00:08:52;;;;;;;1.73;1.55;;;;;;;;;;5055890;28;20031;-67
2023/04/29 00:11:37;;;;;;;2.40;1.80;;;;;;;;;;5055674;28;20360;-70
2023/04/29 00:14:23;;;;;;;4.28;1.98;;;;;;;;;;5052598;28;20279;-70
2023/04/29 00:17:08;;;;;;;3.67;2.22;;;;;;;;;;5055437;28;20044;-68
2023/04/29 00:19:54;;;;;;;5.18;2.22;;;;;;;;;;5054879;28;20029;-69
2023/04/29 00:22:39;;;;;;;5.55;3.03;;;;;;;;;;5054749;28;20036;-69
2023/04/29 00:25:24;;;;;;;6.03;2.83;;;;;;;;;;5046237;28;20478;-70
2023/04/29 00:28:09;;;;;;;6.05;1.98;;;;;;;;;;5052849;28;20027;-72
2023/04/29 00:30:55;;;;;;;4.68;1.95;;;;;;;;;;5062966;28;20012;-73
2023/04/29 00:33:40;;;;;;;3.17;2.10;;;;;;;;;;5053096;28;20063;-70
2023/04/29 00:36:25;;;;;;;4.25;1.95;;;;;;;;;;5049864;28;20488;-72
2023/04/29 00:39:12;;;;;;;4.28;1.73;;;;;;;;;;5052704;28;20028;-71
2023/04/29 00:41:57;;;;;;;2.97;1.50;;;;;;;;;;5053143;28;20043;-68
2023/04/29 00:44:42;;;;;;;4.45;1.70;;;;;;;;;;5051394;28;20459;-74
2023/04/29 00:47:27;;;;;;;3.83;1.65;;;;;;;;;;5060783;28;20109;-72
2023/04/29 00:50:13;;;;;;;3.30;1.92;;;;;;;;;;5052290;28;20052;-72
2023/04/29 00:52:58;;;;;;;4.03;2.45;;;;;;;;;;5043946;28;20064;-71
2023/04/29 00:55:45;;;;;;;3.65;1.52;;;;;;;;;;5050444;28;20097;-72
2023/04/29 00:58:34;;;;;;;6.50;2.15;;;;;;;;;;5038188;28;20033;-73
2023/04/29 01:01:20;;;;;;;4.80;2.00;;;;;;;;;;5038977;28;20320;-70
2023/04/29 01:04:06;;;;;;;2.58;1.75;;;;;;;;;;5047633;28;20045;-69
2023/04/29 01:06:55;;;;;;;6.30;1.98;;;;;;;;;;5044297;28;20505;-71
2023/04/29 01:09:50;;;;;;;2.55;1.73;;;;;;;;;;5050934;28;20047;-70
2023/04/29 01:12:42;;;;;;;3.95;2.08;;;;;;;;;;5036257;28;20097;-69
2023/04/29 01:15:36;;;;;;;2.65;1.45;;;;;;;;;;5040134;28;20032;-69
2023/04/29 01:18:26;;;;;;;4.65;1.67;;;;;;;;;;5051064;28;20058;-69
2023/04/29 01:21:13;;;;;;;2.63;1.40;;;;;;;;;;5049597;28;20086;-77
2023/04/29 01:23:58;;;;;;;3.45;1.85;;;;;;;;;;5048686;28;20025;-74
2023/04/29 01:26:47;;;;;;;2.60;1.70;;;;;;;;;;5052565;28;20491;-76
2023/04/29 01:29:37;;;;;;;5.40;1.88;;;;;;;;;;5048796;28;20025;-76
2023/04/29 01:32:43;;;;;;;4.07;2.10;;;;;;;;;;5052542;28;20040;-76
2023/04/29 01:35:31;;;;;;;1.67;1.38;;;;;;;;;;5026429;28;20431;-75
2023/04/29 01:38:28;;;;;;;4.38;1.90;;;;;;;;;;5052795;28;20136;-75
2023/04/29 01:41:15;;;;;;;4.35;1.85;;;;;;;;;;5050904;28;20051;-68
2023/04/29 01:44:02;;;;;;;5.72;2.85;;;;;;;;;;5052700;28;20127;-68
2023/04/29 01:46:50;;;;;;;4.70;1.60;;;;;;;;;;5048927;28;20029;-69
2023/04/29 01:49:36;;;;;;;3.30;1.60;;;;;;;;;;5052243;28;20384;-69
2023/04/29 01:52:22;;;;;;;3.92;1.73;;;;;;;;;;5039087;28;20028;-68
2023/04/29 01:55:07;;;;;;;3.58;1.70;;;;;;;;;;5048556;28;20179;-72
2023/04/29 01:57:53;;;;;;;3.70;2.28;;;;;;;;;;5029353;28;20028;-69
2023/04/29 02:00:38;;;;;;;2.28;2.05;;;;;;;;;;5034009;28;20050;-68
2023/04/29 02:03:23;;;;;;;7.63;3.20;;;;;;;;;;5047566;28;20444;-69
2023/04/29 02:06:08;;;;;;;4.78;1.70;;;;;;;;;;5046265;28;20016;-67
2023/04/29 02:08:54;;;;;;;4.90;1.50;;;;;;;;;;5049821;28;20033;-68
2023/04/29 02:11:39;;;;;;;1.45;1.20;;;;;;;;;;5036972;28;20059;-67
2023/04/29 02:14:24;;;;;;;3.78;2.00;;;;;;;;;;5050840;28;20028;-69
2023/04/29 02:17:09;;;;;;;3.65;2.45;;;;;;;;;;5035304;28;20029;-68
2023/04/29 02:19:55;;;;;;;2.78;1.48;;;;;;;;;;5038565;28;20040;-69
2023/04/29 02:22:40;;;;;;;3.42;1.50;;;;;;;;;;5046828;28;20221;-70
2023/04/29 02:25:25;;;;;;;8.20;3.05;;;;;;;;;;5053027;28;20108;-70
2023/04/29 02:28:11;;;;;;;3.72;1.63;;;;;;;;;;5048275;28;20450;-70
2023/04/29 02:30:56;;;;;;;2.33;1.52;;;;;;;;;;5047492;28;20036;-69
2023/04/29 02:33:41;;;;;;;5.82;2.00;;;;;;;;;;5030588;28;20033;-70
2023/04/29 02:36:27;;;;;;;3.70;1.30;;;;;;;;;;5056281;28;20024;-70
2023/04/29 02:39:12;;;;;;;2.08;1.63;;;;;;;;;;5044335;28;20067;-68
2023/04/29 02:41:58;;;;;;;3.78;1.67;;;;;;;;;;5052406;28;20052;-68
2023/04/29 02:44:43;;;;;;;6.22;1.70;;;;;;;;;;5030822;28;20184;-69
2023/04/29 02:47:28;;;;;;;1.83;1.65;;;;;;;;;;5047402;28;20036;-69
2023/04/29 02:50:14;;;;;;;7.10;1.85;;;;;;;;;;5049194;28;20021;-70
2023/04/29 02:52:59;;;;;;;2.40;1.48;;;;;;;;;;5048675;28;20056;-69
2023/04/29 02:55:44;;;;;;;3.85;1.90;;;;;;;;;;5052352;28;20461;-70
2023/04/29 02:58:29;;;;;;;3.10;1.95;;;;;;;;;;5053602;28;20032;-71
2023/04/29 03:01:15;;;;;;;5.28;1.50;;;;;;;;;;5054194;28;20028;-71
2023/04/29 03:04:00;;;;;;;5.30;1.77;;;;;;;;;;5039913;28;20479;-70
2023/04/29 03:06:45;;;;;;;4.25;2.22;;;;;;;;;;5050809;28;20558;-70
2023/04/29 03:09:31;;;;;;;3.10;1.48;;;;;;;;;;5055421;28;20107;-75
2023/04/29 03:12:16;;;;;;;4.45;1.48;;;;;;;;;;5031851;28;20025;-70
2023/04/29 03:15:01;;;;;;;2.08;1.60;;;;;;;;;;5043212;28;20851;-69
2023/04/29 03:17:47;;;;;;;2.25;1.40;;;;;;;;;;5032734;28;20037;-69
2023/04/29 03:20:32;;;;;;;3.40;1.85;;;;;;;;;;5034976;28;20513;-70
2023/04/29 03:23:17;;;;;;;2.72;1.50;;;;;;;;;;5052258;28;20047;-69
2023/04/29 03:26:02;;;;;;;3.45;2.17;;;;;;;;;;5028393;28;20039;-70
2023/04/29 03:28:48;;;;;;;6.28;1.75;;;;;;;;;;5047417;28;20028;-68
2023/04/29 03:31:33;;;;;;;4.30;1.75;;;;;;;;;;5051520;28;20068;-68
2023/04/29 03:34:19;;;;;;;4.03;1.40;;;;;;;;;;5033265;28;20139;-67
2023/04/29 03:37:05;;;;;;;3.63;2.30;;;;;;;;;;5050307;28;20503;-68
2023/04/29 03:39:50;;;;;;;3.80;2.10;;;;;;;;;;5041920;28;20075;-67
2023/04/29 03:42:35;;;;;;;1.73;1.50;;;;;;;;;;5052983;28;20057;-67
2023/04/29 03:45:20;;;;;;;1.90;1.27;;;;;;;;;;5034740;28;20040;-75
2023/04/29 03:48:06;;;;;;;3.03;1.50;;;;;;;;;;5045811;28;20471;-68
2023/04/29 03:50:52;;;;;;;3.25;1.65;;;;;;;;;;5042335;28;20040;-68
2023/04/29 03:53:38;;;;;;;1.90;1.33;;;;;;;;;;5052055;28;20475;-68
2023/04/29 03:56:26;;;;;;;4.43;1.65;;;;;;;;;;5051348;28;20033;-68
2023/04/29 03:59:11;;;;;;;4.20;1.70;;;;;;;;;;5047465;28;20032;-69
2023/04/29 04:01:57;;;;;;;3.45;1.50;;;;;;;;;;5046118;28;20517;-69
2023/04/29 04:04:42;;;;;;;2.72;1.77;;;;;;;;;;5047691;28;20045;-69
2023/04/29 04:07:27;;;;;;;3.05;2.10;;;;;;;;;;5034604;28;20652;-70
2023/04/29 04:10:13;;;;;;;3.90;1.48;;;;;;;;;;5048367;28;20063;-71
2023/04/29 04:12:58;;;;;;;1.77;1.50;;;;;;;;;;5053551;28;20032;-69
2023/04/29 04:15:48;;;;;;;2.65;1.40;;;;;;;;;;5055993;28;20422;-69
2023/04/29 04:18:33;;;;;;;3.97;2.50;;;;;;;;;;5049433;28;20140;-70
2023/04/29 04:21:18;;;;;;;1.90;1.70;;;;;;;;;;5049833;28;20021;-70
2023/04/29 04:24:04;;;;;;;2.83;1.92;;;;;;;;;;5050820;28;20086;-71
2023/04/29 04:26:49;;;;;;;5.93;2.00;;;;;;;;;;5051328;28;20472;-74
2023/04/29 04:29:34;;;;;;;5.30;1.60;;;;;;;;;;5034118;28;20093;-71
2023/04/29 04:32:20;;;;;;;3.58;2.03;;;;;;;;;;5048064;28;20071;-74
2023/04/29 04:35:07;;;;;;;2.88;1.60;;;;;;;;;;5037521;28;20032;-73
2023/04/29 04:37:52;;;;;;;4.28;1.83;;;;;;;;;;5049578;28;20067;-74
2023/04/29 04:40:41;;;;;;;3.53;1.60;;;;;;;;;;5028788;28;20133;-69
2023/04/29 04:43:26;;;;;;;6.15;2.25;;;;;;;;;;5048117;28;20032;-72
2023/04/29 04:46:13;;;;;;;5.68;1.65;;;;;;;;;;5058012;28;20035;-74
2023/04/29 04:48:58;;;;;;;4.10;1.75;;;;;;;;;;5052464;28;20033;-73
2023/04/29 04:51:44;;;;;;;2.33;1.65;;;;;;;;;;5050226;28;20028;-73
2023/04/29 04:54:29;;;;;;;3.38;1.38;;;;;;;;;;5050877;28;20040;-74
2023/04/29 04:57:15;;;;;;;2.90;1.60;;;;;;;;;;5035173;28;20024;-73
2023/04/29 05:00:01;;;;;;;3.47;1.60;;;;;;;;;;5052673;28;20520;-71
2023/04/29 05:02:46;;;;;;;4.78;1.95;;;;;;;;;;5032259;28;20082;-70
2023/04/29 05:05:32;;;;;;;4.60;1.50;;;;;;;;;;5053608;28;20079;-71
2023/04/29 05:08:17;;;;;;;3.38;1.70;;;;;;;;;;5055758;28;20093;-72
2023/04/29 05:11:02;;;;;;;5.13;2.15;;;;;;;;;;5055345;28;20036;-74
2023/04/29 05:13:48;;;;;;;4.40;2.00;;;;;;;;;;5040387;28;20025;-72
2023/04/29 05:16:33;;;;;;;3.78;1.73;;;;;;;;;;5051844;28;20286;-72
2023/04/29 05:19:19;;;;;;;5.15;1.75;;;;;;;;;;5043514;28;20051;-73
2023/04/29 05:22:04;;;;;;;4.30;2.22;;;;;;;;;;5054701;28;20081;-70
2023/04/29 05:24:50;;;;;;;2.97;2.17;;;;;;;;;;5054763;28;20017;-70
2023/04/29 05:27:35;;;;;;;3.47;2.08;;;;;;;;;;5054523;28;20021;-70
2023/04/29 05:30:21;;;;;;;3.40;1.88;;;;;;;;;;5048396;28;20025;-69
2023/04/29 05:33:06;;;;;;;5.63;2.30;;;;;;;;;;5054899;28;20547;-70
2023/04/29 05:35:51;;;;;;;6.53;2.35;;;;;;;;;;5050290;28;20514;-73
2023/04/29 05:38:37;;;;;;;3.90;1.90;;;;;;;;;;5052068;28;20237;-76
2023/04/29 05:41:23;;;;;;;4.78;2.38;;;;;;;;;;5053579;28;20040;-75
2023/04/29 05:44:09;;;;;;;3.40;2.00;;;;;;;;;;5040953;28;20130;-74
2023/04/29 05:46:54;;;;;;;4.75;2.53;;;;;;;;;;5040512;28;20196;-73
2023/04/29 05:49:39;;;;;;;6.32;2.55;;;;;;;;;;5061170;28;20024;-76
2023/04/29 05:52:24;;;;;;;4.00;2.30;;;;;;;;;;5051379;28;20468;-74
2023/04/29 05:55:10;;;;;;;2.75;2.08;;;;;;;;;;5051327;28;20029;-68
2023/04/29 05:57:55;;;;;;;5.82;2.63;;;;;;;;;;5054124;28;20050;-74
2023/04/29 06:00:42;;;;;;;6.80;2.72;;;;;;;;;;5053283;28;20610;-73
2023/04/29 06:03:28;;;;;;;5.03;2.75;;;;;;;;;;5053835;28;20036;-73
2023/04/29 06:06:13;;;;;;;3.67;2.45;;;;;;;;;;5052754;28;20024;-73
2023/04/29 06:08:59;;;;;;;4.40;2.72;;;;;;;;;;5051098;28;20111;-72
2023/04/29 06:11:44;;;;;;;5.40;3.10;;;;;;;;;;5051081;28;20031;-75
2023/04/29 06:14:30;;;;;;;6.78;2.95;;;;;;;;;;5052552;28;20036;-68
2023/04/29 06:17:15;;;;;;;6.75;3.08;;;;;;;;;;5047146;28;20105;-70
2023/04/29 06:20:01;;;;;;;5.20;2.25;;;;;;;;;;5044048;28;20029;-70
2023/04/29 06:22:46;;;;;;;4.72;2.90;;;;;;;;;;5057874;28;20032;-69
2023/04/29 06:25:31;;;;;;;5.70;3.53;;;;;;;;;;5050526;28;20477;-70
2023/04/29 06:28:16;;;;;;;7.28;3.08;;;;;;;;;;5034401;28;20032;-69
2023/04/29 06:31:02;;;;;;;4.50;2.78;;;;;;;;;;5050998;28;20202;-76
2023/04/29 06:33:47;;;;;;;3.40;2.65;;;;;;;;;;5035325;28;20043;-75
2023/04/29 06:36:33;;;;;;;7.10;3.58;;;;;;;;;;5049713;28;20025;-75
2023/04/29 06:39:18;;;;;;;6.38;4.00;;;;;;;;;;5048894;28;20591;-76
2023/04/29 06:42:03;;;;;;;4.75;4.00;;;;;;;;;;5032296;28;20047;-76
2023/04/29 06:44:48;;;;;;;6.10;3.70;;;;;;;;;;5048261;28;20105;-74
2023/04/29 06:47:33;;;;;;;7.22;3.67;;;;;;;;;;5052095;28;20037;-76
2023/04/29 06:50:19;;;;;;;5.85;3.85;;;;;;;;;;5050654;28;20047;-71
2023/04/29 06:53:04;;;;;;;7.32;3.78;;;;;;;;;;5043435;28;20295;-71
2023/04/29 06:55:49;;;;;;;9.38;3.90;;;;;;;;;;5038505;28;20388;-71
2023/04/29 06:58:35;;;;;;;4.95;3.67;;;;;;;;;;5049069;28;20037;-72
2023/04/29 07:01:20;;;;;;;3.67;2.80;;;;;;;;;;5050205;28;20432;-71
2023/04/29 07:04:05;;;;;;;2.92;2.50;;;;;;;;;;5037144;28;20024;-70
2023/04/29 07:06:52;;;;;;;3.10;2.30;;;;;;;;;;5050971;28;20258;-71
2023/04/29 07:09:37;;;;;;;4.68;2.22;;;;;;;;;;5039591;28;20036;-73
2023/04/29 07:12:23;;;;;;;4.70;2.55;;;;;;;;;;5051160;28;20671;-70
2023/04/29 07:15:08;;;;;;;5.28;2.50;;;;;;;;;;5032475;28;20033;-71
2023/04/29 07:17:53;;;;;;;2.85;2.00;;;;;;;;;;5046221;28;20041;-69
2023/04/29 07:20:39;;;;;;;4.82;2.22;;;;;;;;;;5048193;28;20446;-70
2023/04/29 07:23:24;;;;;;;3.65;2.30;;;;;;;;;;5039641;28;20020;-70
2023/04/29 07:26:14;;;;;;;5.18;3.15;;;;;;;;;;5060001;28;20028;-71
2023/04/29 07:28:59;;;;;;;2.35;2.00;;;;;;;;;;5050558;28;20395;-70
2023/04/29 07:31:45;;;;;;;2.78;2.08;;;;;;;;;;5050863;28;20029;-71
2023/04/29 07:34:30;;;;;;;2.15;1.85;;;;;;;;;;5044989;28;20496;-75
2023/04/29 07:37:16;;;;;;;2.97;1.73;;;;;;;;;;5050539;28;20090;-73
2023/04/29 07:40:01;;;;;;;1.65;1.48;;;;;;;;;;5046678;28;20113;-71
2023/04/29 07:42:46;;;;;;;1.88;1.60;;;;;;;;;;5050484;28;20049;-70
2023/04/29 07:45:32;;;;;;;2.45;1.80;;;;;;;;;;5050594;28;20028;-72
2023/04/29 07:48:17;;;;;;;2.80;2.13;;;;;;;;;;5035327;28;20452;-64
2023/04/29 07:51:03;;;;;;;6.85;2.25;;;;;;;;;;5053374;28;20368;-70
2023/04/29 07:53:48;;;;;;;3.50;2.08;;;;;;;;;;5056908;28;20077;-63
2023/04/29 07:56:33;;;;;;;4.50;1.85;;;;;;;;;;5057655;28;20206;-64
2023/04/29 07:59:18;;;;;;;2.22;1.42;;;;;;;;;;5059056;28;20040;-64
2023/04/29 08:02:03;;;;;;;3.58;1.90;;;;;;;;;;5054041;28;20027;-65
2023/04/29 08:04:49;;;;;;;3.53;2.03;;;;;;;;;;5051401;28;20098;-64
2023/04/29 08:07:35;;;;;;;3.05;1.98;;;;;;;;;;5049751;28;20032;-80
2023/04/29 08:10:21;;;;;;;3.60;1.60;;;;;;;;;;5056090;28;20033;-77
2023/04/29 08:13:07;;;;;;;3.33;1.75;;;;;;;;;;5055085;28;20025;-75
2023/04/29 08:15:52;;;;;;;5.85;2.10;;;;;;;;;;5050292;28;20024;-75
2023/04/29 08:18:38;;;;;;;3.25;1.80;;;;;;;;;;5036706;28;20036;-72
2023/04/29 08:21:23;;;;;;;2.53;1.70;;;;;;;;;;5053742;28;20028;-68
2023/04/29 08:24:08;;;;;;;1.95;1.60;;;;;;;;;;5053486;28;20040;-70
2023/04/29 08:26:54;;;;;;;2.47;1.60;;;;;;;;;;5057355;28;20031;-71
2023/04/29 08:29:39;;;;;;;2.67;2.05;;;;;;;;;;5064102;28;20027;-72
2023/04/29 08:32:25;;;;;;;2.10;1.75;;;;;;;;;;5052480;28;20024;-69
2023/04/29 08:35:10;;;;;;;2.13;1.60;;;;;;;;;;5049808;28;20498;-70
2023/04/29 08:37:55;;;;;;;2.63;1.70;;;;;;;;;;5047914;28;20042;-71
2023/04/29 08:40:41;;;;;;;3.40;1.60;;;;;;;;;;5043971;28;20033;-74
2023/04/29 08:43:27;;;;;;;1.92;1.70;;;;;;;;;;5053442;28;20028;-61
2023/04/29 08:46:13;;;;;;;2.35;1.50;;;;;;;;;;5057220;28;20194;-64
2023/04/29 08:49:01;;;;;;;1.90;1.40;;;;;;;;;;5051690;28;20257;-70
2023/04/29 08:51:50;;;;;;;2.70;1.75;;;;;;;;;;5056832;28;20020;-68
2023/04/29 08:54:35;;;;;;;7.65;1.83;;;;;;;;;;5063523;28;20031;-69
2023/04/29 08:57:21;;;;;;;2.15;1.77;;;;;;;;;;5052179;28;20071;-69
2023/04/29 09:00:09;;;;;;;2.60;1.60;;;;;;;;;;5062416;28;20035;-70
2023/04/29 09:02:56;;;;;;;3.10;1.95;;;;;;;;;;5045388;28;20507;-68
2023/04/29 09:05:42;;;;;;;4.05;1.88;;;;;;;;;;5064903;28;20020;-68
2023/04/29 09:08:27;;;;;;;2.15;1.73;;;;;;;;;;5054305;28;20060;-68
2023/04/29 09:11:13;;;;;;;3.17;1.92;;;;;;;;;;5045364;28;20032;-68
2023/04/29 09:14:00;;;;;;;4.47;1.60;;;;;;;;;;5056128;28;20392;-68
2023/04/29 09:16:45;;;;;;;4.57;2.20;;;;;;;;;;5052471;28;20135;-71
2023/04/29 09:19:31;;;;;;;6.15;2.50;;;;;;;;;;5029567;28;20509;-69
2023/04/29 09:22:17;;;;;;;3.55;2.28;;;;;;;;;;5050890;28;20036;-68
2023/04/29 09:25:11;;;;;;;4.45;2.33;;;;;;;;;;5064739;28;20024;-69
2023/04/29 09:27:57;;;;;;;2.53;2.33;;;;;;;;;;5055499;28;20024;-70
2023/04/29 09:30:46;;;;;;;4.22;2.25;;;;;;;;;;5052925;28;20492;-68
2023/04/29 09:33:31;;;;;;;2.95;2.25;;;;;;;;;;5059461;28;20029;-70
2023/04/29 09:36:38;;;;;;;3.55;2.53;;;;;;;;;;5048917;28;20039;-67
2023/04/29 09:39:24;;;;;;;2.60;1.92;;;;;;;;;;5048315;28;20032;-74
2023/04/29 09:42:09;;;;;;;2.92;2.08;;;;;;;;;;5052368;28;20127;-73
2023/04/29 09:44:54;;;;;;;6.50;2.35;;;;;;;;;;5051396;28;20064;-76
2023/04/29 09:47:40;;;;;;;8.07;3.22;;;;;;;;;;5047292;28;20028;-76
2023/04/29 09:50:25;;;;;;;2.80;2.08;;;;;;;;;;5050342;28;20067;-77
2023/04/29 09:53:10;;;;;;;2.95;2.08;;;;;;;;;;5043374;28;20043;-69
2023/04/29 09:56:00;;;;;;;3.78;2.13;;;;;;;;;;5033997;28;20734;-77
2023/04/29 09:58:45;;;;;;;5.63;2.10;;;;;;;;;;5052958;28;20102;-77
2023/04/29 10:01:30;;;;;;;2.15;1.92;;;;;;;;;;5040539;28;20040;-76
2023/04/29 10:04:17;;;;;;;6.07;2.20;;;;;;;;;;5049562;28;20056;-77
2023/04/29 10:07:02;;;;;;;2.50;1.83;;;;;;;;;;5054870;28;20475;-78
2023/04/29 10:09:47;;;;;;;3.92;2.10;;;;;;;;;;5044361;28;20036;-78
2023/04/29 10:12:39;;;;;;;2.83;2.00;;;;;;;;;;5043154;28;20024;-68
2023/04/29 10:15:32;;;;;;;3.00;1.85;;;;;;;;;;5047064;28;20036;-69
2023/04/29 10:18:19;;;;;;;2.97;1.83;;;;;;;;;;5050540;28;20127;-70
2023/04/29 10:21:08;;;;;;;5.00;2.15;;;;;;;;;;5052315;28;20416;-67
2023/04/29 10:23:55;;;;;;;2.92;2.13;;;;;;;;;;5052387;28;20036;-69
2023/04/29 10:26:40;;;;;;;2.83;1.73;;;;;;;;;;5049004;28;20032;-70
2023/04/29 10:29:27;;;;;;;6.45;1.92;;;;;;;;;;5054393;28;20024;-70
2023/04/29 10:32:13;;;;;;;1.95;1.48;;;;;;;;;;5052604;28;20519;-66
2023/04/29 10:34:59;;;;;;;2.30;1.88;;;;;;;;;;5039191;28;20432;-69
2023/04/29 10:37:45;;;;;;;2.90;1.92;;;;;;;;;;5061621;28;20037;-69
2023/04/29 10:40:37;;;;;;;2.60;1.63;;;;;;;;;;5051133;28;20479;-69
2023/04/29 10:43:23;;;;;;;3.83;1.90;;;;;;;;;;5027608;28;20452;-70
2023/04/29 10:46:15;;;;;;;5.70;1.73;;;;;;;;;;5034498;28;20530;-71
2023/04/29 10:49:03;;;;;;;2.33;1.60;;;;;;;;;;5016964;28;20052;-65
2023/04/29 10:51:49;;;;;;;3.17;1.70;;;;;;;;;;5034569;28;20471;-68
2023/04/29 10:54:34;;;;;;;5.47;1.95;;;;;;;;;;5033792;28;20071;-67
2023/04/29 10:57:20;;;;;;;4.82;2.05;;;;;;;;;;5034442;28;20082;-66
2023/04/29 11:00:05;;;;;;;7.90;2.05;;;;;;;;;;5020676;28;20113;-65
2023/04/29 11:02:52;;;;;;;4.88;2.45;;;;;;;;;;5016440;28;20025;-67
2023/04/29 11:05:38;;;;;;;3.10;2.05;;;;;;;;;;5025970;28;20468;-66
2023/04/29 11:08:25;;;;;;;3.65;1.90;;;;;;;;;;5021076;28;20044;-64
2023/04/29 11:11:12;;;;;;;2.88;1.80;;;;;;;;;;5034952;28;20025;-66
2023/04/29 11:13:57;;;;;;;2.78;1.85;;;;;;;;;;5033383;28;20683;-65
2023/04/29 11:16:47;;;;;;;3.10;2.03;;;;;;;;;;5011397;28;20067;-75
2023/04/29 11:19:32;;;;;;;3.15;1.58;;;;;;;;;;5034258;28;20376;-73
2023/04/29 11:22:17;;;;;;;2.78;1.63;;;;;;;;;;5025186;28;20021;-75
2023/04/29 11:25:04;;;;;;;3.05;2.00;;;;;;;;;;5038216;28;20071;-75
2023/04/29 11:27:50;;;;;;;2.08;1.48;;;;;;;;;;5037671;28;20031;-72
2023/04/29 11:30:35;;;;;;;3.35;1.50;;;;;;;;;;5036842;28;20037;-75
2023/04/29 11:33:21;;;;;;;2.83;1.80;;;;;;;;;;5035843;28;20434;-61
2023/04/29 11:36:06;;;;;;;3.10;1.80;;;;;;;;;;5036332;28;20124;-62
2023/04/29 11:38:51;;;;;;;3.17;1.58;;;;;;;;;;5024088;28;20041;-61
2023/04/29 11:41:37;;;;;;;3.90;2.08;;;;;;;;;;5053699;28;20060;-63
2023/04/29 11:44:22;;;;;;;2.05;1.48;;;;;;;;;;5057406;28;20245;-71
2023/04/29 11:47:07;;;;;;;3.45;1.65;;;;;;;;;;5043501;28;20524;-75
2023/04/29 11:49:53;;;;;;;3.65;1.52;;;;;;;;;;5056873;28;20093;-76
2023/04/29 11:52:39;;;;;;;3.28;1.52;;;;;;;;;;5055123;28;20071;-76
2023/04/29 11:55:25;;;;;;;3.90;1.73;;;;;;;;;;5054237;28;20074;-78
2023/04/29 11:58:11;;;;;;;1.83;1.73;;;;;;;;;;5052858;28;20452;-75
2023/04/29 12:00:57;;;;;;;1.85;1.50;;;;;;;;;;5054871;28;20028;-71
2023/04/29 12:03:42;;;;;;;3.47;2.47;;;;;;;;;;5045201;28;20475;-68
2023/04/29 12:06:28;;;;;;;4.35;2.78;;;;;;;;;;5057347;28;20033;-66
2023/04/29 12:09:15;;;;;;;7.20;3.33;;;;;;;;;;5063412;28;20019;-69
2023/04/29 12:12:00;;;;;;;4.97;2.55;;;;;;;;;;5054141;28;20399;-67
2023/04/29 12:14:46;;;;;;;7.45;3.42;;;;;;;;;;5062065;28;20444;-67
2023/04/29 12:17:31;;;;;;;8.60;3.80;;;;;;;;;;5056931;28;20027;-65
2023/04/29 12:20:16;;;;;;;6.78;3.08;;;;;;;;;;5057154;28;20119;-65
2023/04/29 12:23:11;;;;;;;8.40;3.80;;;;;;;;;;5057104;28;20081;-71
2023/04/29 12:25:58;;;;;;;8.02;3.40;;;;;;;;;;5047273;28;20032;-69
2023/04/29 12:28:43;;;;;;;4.30;3.33;;;;;;;;;;5045795;28;20043;-65
2023/04/29 12:31:33;;;;;;;5.22;2.95;;;;;;;;;;5047519;28;20026;-71
2023/04/29 12:34:18;;;;;;;;;;;;;;;;;;5057415;28;20600;-71
2023/04/29 12:37:03;;;;;;;7.03;3.88;;;;;;;;;;5056868;28;19995;-67
2023/04/29 12:39:49;;;;;;;8.70;4.00;;;;;;;;;;5056892;28;20040;-70
2023/04/29 12:42:34;;;;;;;5.30;3.60;;;;;;;;;;5048495;28;20048;-66
2023/04/29 12:45:29;;;;;;;13.70;5.40;;;;;;;;;;5063392;28;20028;-63
2023/04/29 12:48:15;;;;;;;6.97;3.38;;;;;;;;;;5035584;28;20037;-63
2023/04/29 12:51:01;;;;;;;8.32;4.25;;;;;;;;;;5047059;28;20024;-62
2023/04/29 12:53:46;;;;;;;7.03;4.63;;;;;;;;;;5051197;28;20185;-66
2023/04/29 12:56:32;;;;;;;8.63;4.03;;;;;;;;;;5043360;28;20028;-68
2023/04/29 12:59:17;;;;;;;5.93;3.88;;;;;;;;;;5050185;28;20383;-68
2023/04/29 13:02:02;;;;;;;5.93;3.92;;;;;;;;;;5053578;28;20253;-71
2023/04/29 13:04:47;;;;;;;6.00;3.80;;;;;;;;;;5047448;28;20029;-69
2023/04/29 13:07:33;;;;;;;8.48;4.32;;;;;;;;;;5048762;28;20024;-69
2023/04/29 13:10:19;;;;;;;6.85;4.13;;;;;;;;;;5053686;28;20070;-69
2023/04/29 13:13:04;;;;;;;8.18;4.45;;;;;;;;;;5053608;28;20032;-65
2023/04/29 13:15:49;;;;;;;5.32;3.70;;;;;;;;;;5046968;28;20021;-66
2023/04/29 13:18:35;;;;;;;7.82;4.32;;;;;;;;;;5057739;28;20040;-68
2023/04/29 13:21:20;;;;;;;6.70;4.50;;;;;;;;;;5052513;28;20036;-67
2023/04/29 13:24:06;;;;;;;8.07;3.85;;;;;;;;;;5052504;28;20447;-68
2023/04/29 13:26:51;;;;;;;9.25;4.70;;;;;;;;;;5051330;28;20252;-70
2023/04/29 13:29:37;;;;;;;4.85;3.50;;;;;;;;;;5053489;28;20090;-69
2023/04/29 13:32:23;;;;;;;7.15;3.63;;;;;;;;;;5044913;28;20077;-70
2023/04/29 13:35:08;;;;;;;8.80;4.97;;;;;;;;;;5050230;28;20032;-68
2023/04/29 13:37:53;;;;;;;8.55;5.60;;;;;;;;;;5050193;28;20028;-75
2023/04/29 13:40:39;;;;;;;7.57;5.00;;;;;;;;;;5037315;28;20044;-74
2023/04/29 13:43:24;;;;;;;9.55;5.78;;;;;;;;;;5038303;28;20062;-74
2023/04/29 13:46:09;;;;;;;8.07;4.53;;;;;;;;;;5052557;28;20067;-75
2023/04/29 13:48:55;;;;;;;12.18;5.30;;;;;;;;;;5043037;28;20016;-76
2023/04/29 13:51:40;;;;;;;6.85;4.70;;;;;;;;;;5043949;28;20482;-76
2023/04/29 13:54:25;;;;;;;8.50;5.32;;;;;;;;;;5043900;28;20582;-71
2023/04/29 13:57:10;;;;;;;7.15;5.00;;;;;;;;;;5046111;28;20055;-73
2023/04/29 13:59:55;;;;;;;6.93;5.05;;;;;;;;;;5045833;28;20064;-74
2023/04/29 14:02:41;;;;;;;10.68;6.43;;;;;;;;;;5049721;28;20066;-70
2023/04/29 14:05:27;;;;;;;8.98;6.05;;;;;;;;;;5051574;28;20123;-70
2023/04/29 14:08:13;;;;;;;9.80;6.18;;;;;;;;;;5052336;28;20509;-67
2023/04/29 14:10:58;;;;;;;9.23;5.70;;;;;;;;;;5050246;28;20479;-78
2023/04/29 14:13:43;;;;;;;7.07;4.45;;;;;;;;;;5049116;28;20048;-72
2023/04/29 14:16:29;;;;;;;9.32;5.13;;;;;;;;;;5051072;28;20438;-79
2023/04/29 14:19:14;;;;;;;9.23;5.15;;;;;;;;;;5035683;28;20117;-74
2023/04/29 14:22:00;;;;;;;11.48;5.13;;;;;;;;;;5048141;28;20054;-78
2023/04/29 14:24:45;;;;;;;7.60;4.75;;;;;;;;;;5051865;28;20028;-79
2023/04/29 14:27:30;;;;;;;9.18;5.25;;;;;;;;;;5037918;28;20033;-77
2023/04/29 14:30:15;;;;;;;9.52;5.68;;;;;;;;;;5049333;28;20079;-69
2023/04/29 14:33:01;;;;;;;12.48;6.43;;;;;;;;;;5050729;28;20063;-64
2023/04/29 14:35:46;;;;;;;8.50;5.47;;;;;;;;;;5049897;28;20383;-62
2023/04/29 14:38:31;;;;;;;9.30;5.90;;;;;;;;;;5049899;28;20032;-63
2023/04/29 14:41:16;;;;;;;9.15;5.78;;;;;;;;;;5051489;28;20052;-62
2023/04/29 14:44:02;;;;;;;10.35;6.05;;;;;;;;;;5050328;28;20111;-64
2023/04/29 14:46:47;;;;;;;9.52;6.03;;;;;;;;;;5045444;28;20679;-61
2023/04/29 14:49:32;;;;;;;10.80;6.05;;;;;;;;;;5048799;28;20036;-66
2023/04/29 14:52:17;;;;;;;10.13;6.63;;;;;;;;;;5051622;28;20376;-80
2023/04/29 14:55:03;;;;;;;10.32;6.05;;;;;;;;;;5042285;28;20111;-77
2023/04/29 14:57:49;;;;;;;11.43;6.22;;;;;;;;;;5051113;28;20313;-77
2023/04/29 15:00:35;;;;;;;12.25;6.43;;;;;;;;;;5053355;28;20128;-77
2023/04/29 15:03:21;;;;;;;11.13;7.07;;;;;;;;;;5048689;28;20115;-76
2023/04/29 15:06:06;;;;;;;11.48;7.05;;;;;;;;;;5040599;28;20029;-69
2023/04/29 15:08:51;;;;;;;11.70;7.07;;;;;;;;;;5047210;28;20035;-69
2023/04/29 15:11:36;;;;;;;8.90;5.90;;;;;;;;;;5042150;28;20036;-70
2023/04/29 15:14:22;;;;;;;7.63;5.38;;;;;;;;;;5045399;28;20036;-68
2023/04/29 15:17:07;;;;;;;9.88;6.25;;;;;;;;;;5044886;28;20475;-68
2023/04/29 15:19:53;;;;;;;9.07;5.65;;;;;;;;;;5051366;28;20105;-68
2023/04/29 15:22:38;;;;;;;10.52;6.53;;;;;;;;;;5048243;28;20070;-70
2023/04/29 15:25:23;;;;;;;12.13;6.10;;;;;;;;;;5057056;28;20029;-61
2023/04/29 15:28:09;;;;;;;8.75;5.75;;;;;;;;;;5056213;28;20222;-61
2023/04/29 15:30:54;;;;;;;10.70;6.75;;;;;;;;;;5046479;28;20032;-60
2023/04/29 15:33:39;;;;;;;9.23;6.05;;;;;;;;;;5041328;28;20024;-61
2023/04/29 15:36:32;;;;;;;9.20;6.03;;;;;;;;;;5053538;28;20040;-61
2023/04/29 15:39:17;;;;;;;10.05;5.90;;;;;;;;;;5046793;28;20040;-60
2023/04/29 15:42:02;;;;;;;7.13;4.95;;;;;;;;;;5043834;28;20462;-65
2023/04/29 15:44:47;;;;;;;7.13;4.43;;;;;;;;;;5040711;28;20033;-77
2023/04/29 15:47:33;;;;;;;9.68;5.38;;;;;;;;;;5054200;28;20466;-79
2023/04/29 15:50:18;;;;;;;9.50;5.70;;;;;;;;;;5053279;28;20024;-79
2023/04/29 15:53:03;;;;;;;10.77;6.28;;;;;;;;;;5054123;28;20390;-79
2023/04/29 15:55:48;;;;;;;8.13;4.85;;;;;;;;;;5034263;28;20024;-80
2023/04/29 15:58:34;;;;;;;9.90;5.78;;;;;;;;;;5061457;28;20024;-79
2023/04/29 16:01:19;;;;;;;11.75;6.05;;;;;;;;;;5053433;28;20039;-68
2023/04/29 16:04:05;;;;;;;13.30;6.00;;;;;;;;;;5039337;28;20021;-66
2023/04/29 16:06:51;;;;;;;9.85;5.15;;;;;;;;;;5055776;28;20035;-64
2023/04/29 16:09:36;;;;;;;9.20;6.05;;;;;;;;;;5056943;28;20023;-66
2023/04/29 16:12:21;;;;;;;8.45;5.45;;;;;;;;;;5048962;28;20818;-64
2023/04/29 16:15:07;;;;;;;7.18;4.60;;;;;;;;;;5045386;28;20024;-64
2023/04/29 16:17:52;;;;;;;7.45;4.82;;;;;;;;;;5056888;28;20085;-64
2023/04/29 16:20:38;;;;;;;10.23;4.72;;;;;;;;;;5057027;28;20040;-60
2023/04/29 16:23:23;;;;;;;8.98;5.63;;;;;;;;;;5043906;28;20380;-69
2023/04/29 16:26:08;;;;;;;8.27;4.68;;;;;;;;;;5057163;28;20024;-70
2023/04/29 16:28:54;;;;;;;7.78;5.53;;;;;;;;;;5056608;28;20065;-68
2023/04/29 16:31:39;;;;;;;7.97;5.00;;;;;;;;;;5045764;28;20104;-68
2023/04/29 16:34:24;;;;;;;10.52;5.68;;;;;;;;;;5056983;28;20031;-70